sensor_id;sensor_type;location;lat;lon;timestamp;temperature;humidity
20594;DHT22;10455;48.732;10.266;2023-04-22T00:03:19;7.90;99.90
20594;DHT22;10455;48.732;10.266;2023-04-22T00:08:27;7.80;99.90
20594;DHT22;10455;48.732;10.266;2023-04-22T00:13:29;7.60;99.90
20594;DHT22;10455;48.732;10.266;2023-04-22T00:18:33;7.70;99.90
20594;DHT22;10455;48.732;10.266;2023-04-22T00:23:36;7.50;99.90
20594;DHT22;10455;48.732;10.266;2023-04-22T00:28:38;7.50;99.90
20594;DHT22;10455;48.732;10.266;2023-04-22T00:33:40;7.60;99.90
20594;DHT22;10455;48.732;10.266;2023-04-22T00:38:47;7.60;99.90
20594;DHT22;10455;48.732;10.266;2023-04-22T00:43:50;7.60;99.90
20594;DHT22;10455;48.732;10.266;2023-04-22T00:48:53;7.50;99.90
20594;DHT22;10455;48.732;10.266;2023-04-22T00:53:57;7.50;99.90
20594;DHT22;10455;48.732;10.266;2023-04-22T00:59:01;7.50;99.90
20594;DHT22;10455;48.732;10.266;2023-04-22T01:04:03;7.40;99.90
20594;DHT22;10455;48.732;10.266;2023-04-22T01:09:07;7.40;99.90
20594;DHT22;10455;48.732;10.266;2023-04-22T01:14:09;7.30;99.90
20594;DHT22;10455;48.732;10.266;2023-04-22T01:19:11;7.30;99.90
20594;DHT22;10455;48.732;10.266;2023-04-22T01:24:14;7.10;99.90
20594;DHT22;10455;48.732;10.266;2023-04-22T01:29:19;7.00;99.90
20594;DHT22;10455;48.732;10.266;2023-04-22T01:34:21;7.10;99.90
20594;DHT22;10455;48.732;10.266;2023-04-22T01:39:24;7.10;99.90
20594;DHT22;10455;48.732;10.266;2023-04-22T01:44:27;7.20;99.90
20594;DHT22;10455;48.732;10.266;2023-04-22T01:49:29;7.20;99.90
20594;DHT22;10455;48.732;10.266;2023-04-22T01:54:32;7.10;99.90
20594;DHT22;10455;48.732;10.266;2023-04-22T01:59:34;7.20;99.90
20594;DHT22;10455;48.732;10.266;2023-04-22T02:04:36;7.20;99.90
20594;DHT22;10455;48.732;10.266;2023-04-22T02:09:40;7.10;99.90
20594;DHT22;10455;48.732;10.266;2023-04-22T02:14:42;7.10;99.90
20594;DHT22;10455;48.732;10.266;2023-04-22T02:19:44;7.10;99.90
20594;DHT22;10455;48.732;10.266;2023-04-22T02:24:47;7.10;99.90
20594;DHT22;10455;48.732;10.266;2023-04-22T02:29:52;7.00;99.90
20594;DHT22;10455;48.732;10.266;2023-04-22T02:34:54;7.00;99.90
20594;DHT22;10455;48.732;10.266;2023-04-22T02:39:57;7.00;99.90
20594;DHT22;10455;48.732;10.266;2023-04-22T02:44:59;6.90;99.90
20594;DHT22;10455;48.732;10.266;2023-04-22T02:50:01;7.00;99.90
20594;DHT22;10455;48.732;10.266;2023-04-22T02:55:06;7.10;99.90
20594;DHT22;10455;48.732;10.266;2023-04-22T03:00:08;7.10;99.90
20594;DHT22;10455;48.732;10.266;2023-04-22T03:05:11;7.20;99.90
20594;DHT22;10455;48.732;10.266;2023-04-22T03:10:14;7.30;99.90
20594;DHT22;10455;48.732;10.266;2023-04-22T03:15:16;7.30;99.90
20594;DHT22;10455;48.732;10.266;2023-04-22T03:20:18;7.30;99.90
20594;DHT22;10455;48.732;10.266;2023-04-22T03:25:22;7.20;99.90
20594;DHT22;10455;48.732;10.266;2023-04-22T03:30:24;7.20;99.90
20594;DHT22;10455;48.732;10.266;2023-04-22T03:35:25;7.20;99.90
20594;DHT22;10455;48.732;10.266;2023-04-22T03:40:29;7.20;99.90
20594;DHT22;10455;48.732;10.266;2023-04-22T03:45:31;7.20;99.90
20594;DHT22;10455;48.732;10.266;2023-04-22T03:50:33;7.10;99.90
20594;DHT22;10455;48.732;10.266;2023-04-22T03:55:36;7.10;99.90
20594;DHT22;10455;48.732;10.266;2023-04-22T04:00:38;7.10;99.90
20594;DHT22;10455;48.732;10.266;2023-04-22T04:05:40;7.10;99.90
20594;DHT22;10455;48.732;10.266;2023-04-22T04:10:43;7.20;99.90
20594;DHT22;10455;48.732;10.266;2023-04-22T04:15:45;7.30;99.90
20594;DHT22;10455;48.732;10.266;2023-04-22T04:20:47;7.20;99.90
20594;DHT22;10455;48.732;10.266;2023-04-22T04:25:51;7.20;99.90
20594;DHT22;10455;48.732;10.266;2023-04-22T04:30:52;7.20;99.90
20594;DHT22;10455;48.732;10.266;2023-04-22T04:35:55;7.10;99.90
20594;DHT22;10455;48.732;10.266;2023-04-22T04:40:59;7.20;99.90
20594;DHT22;10455;48.732;10.266;2023-04-22T04:46:01;7.50;99.90
20594;DHT22;10455;48.732;10.266;2023-04-22T04:51:03;7.60;99.90
20594;DHT22;10455;48.732;10.266;2023-04-22T04:56:07;7.70;99.90
20594;DHT22;10455;48.732;10.266;2023-04-22T05:01:09;7.50;99.90
20594;DHT22;10455;48.732;10.266;2023-04-22T05:06:10;7.90;99.90
20594;DHT22;10455;48.732;10.266;2023-04-22T05:11:14;9.10;99.90
20594;DHT22;10455;48.732;10.266;2023-04-22T05:16:18;9.60;99.90
20594;DHT22;10455;48.732;10.266;2023-04-22T05:21:20;10.40;99.90
20594;DHT22;10455;48.732;10.266;2023-04-22T05:26:24;11.00;99.90
20594;DHT22;10455;48.732;10.266;2023-04-22T05:31:26;11.70;99.90
20594;DHT22;10455;48.732;10.266;2023-04-22T05:36:28;12.20;99.90
20594;DHT22;10455;48.732;10.266;2023-04-22T05:41:32;13.60;99.90
20594;DHT22;10455;48.732;10.266;2023-04-22T05:46:34;14.90;99.90
20594;DHT22;10455;48.732;10.266;2023-04-22T05:51:36;14.60;99.90
20594;DHT22;10455;48.732;10.266;2023-04-22T05:56:40;14.10;99.90
20594;DHT22;10455;48.732;10.266;2023-04-22T06:01:42;13.80;99.90
20594;DHT22;10455;48.732;10.266;2023-04-22T06:06:44;14.40;99.90
20594;DHT22;10455;48.732;10.266;2023-04-22T06:11:48;14.40;99.90
20594;DHT22;10455;48.732;10.266;2023-04-22T06:16:50;14.60;99.90
20594;DHT22;10455;48.732;10.266;2023-04-22T06:21:53;14.60;99.90
20594;DHT22;10455;48.732;10.266;2023-04-22T06:26:57;15.40;99.90
20594;DHT22;10455;48.732;10.266;2023-04-22T06:31:59;15.10;99.90
20594;DHT22;10455;48.732;10.266;2023-04-22T06:37:02;15.40;99.90
20594;DHT22;10455;48.732;10.266;2023-04-22T06:47:09;16.20;99.90
20594;DHT22;10455;48.732;10.266;2023-04-22T06:52:11;16.60;99.90
20594;DHT22;10455;48.732;10.266;2023-04-22T06:57:13;16.80;99.90
20594;DHT22;10455;48.732;10.266;2023-04-22T07:02:16;16.50;99.90
20594;DHT22;10455;48.732;10.266;2023-04-22T07:07:18;17.10;99.90
20594;DHT22;10455;48.732;10.266;2023-04-22T07:12:20;18.40;99.90
20594;DHT22;10455;48.732;10.266;2023-04-22T07:17:25;19.50;99.90
20594;DHT22;10455;48.732;10.266;2023-04-22T07:22:27;20.30;99.90
20594;DHT22;10455;48.732;10.266;2023-04-22T07:27:29;21.10;99.90
20594;DHT22;10455;48.732;10.266;2023-04-22T07:32:32;21.30;99.90
20594;DHT22;10455;48.732;10.266;2023-04-22T07:37:34;21.60;99.90
20594;DHT22;10455;48.732;10.266;2023-04-22T07:42:37;22.10;99.90
20594;DHT22;10455;48.732;10.266;2023-04-22T07:47:40;21.90;99.90
20594;DHT22;10455;48.732;10.266;2023-04-22T07:52:42;22.30;99.90
20594;DHT22;10455;48.732;10.266;2023-04-22T07:57:44;24.70;98.60
20594;DHT22;10455;48.732;10.266;2023-04-22T08:02:47;26.30;94.10
20594;DHT22;10455;48.732;10.266;2023-04-22T08:07:49;26.80;93.00
20594;DHT22;10455;48.732;10.266;2023-04-22T08:12:51;27.50;91.20
20594;DHT22;10455;48.732;10.266;2023-04-22T08:17:54;26.90;89.50
20594;DHT22;10455;48.732;10.266;2023-04-22T08:22:56;27.30;86.90
20594;DHT22;10455;48.732;10.266;2023-04-22T08:28:00;26.40;89.00
20594;DHT22;10455;48.732;10.266;2023-04-22T08:33:03;24.20;92.10
20594;DHT22;10455;48.732;10.266;2023-04-22T08:38:05;25.70;91.50
20594;DHT22;10455;48.732;10.266;2023-04-22T08:43:07;25.90;92.10
20594;DHT22;10455;48.732;10.266;2023-04-22T08:48:11;25.00;92.70
20594;DHT22;10455;48.732;10.266;2023-04-22T08:53:14;27.40;89.00
20594;DHT22;10455;48.732;10.266;2023-04-22T08:58:16;28.50;84.50
20594;DHT22;10455;48.732;10.266;2023-04-22T09:03:19;28.50;78.60
20594;DHT22;10455;48.732;10.266;2023-04-22T09:08:21;29.70;75.70
20594;DHT22;10455;48.732;10.266;2023-04-22T09:13:25;30.10;70.50
20594;DHT22;10455;48.732;10.266;2023-04-22T09:18:28;31.10;67.90
20594;DHT22;10455;48.732;10.266;2023-04-22T09:23:30;31.20;65.70
20594;DHT22;10455;48.732;10.266;2023-04-22T09:28:35;29.70;68.00
20594;DHT22;10455;48.732;10.266;2023-04-22T09:33:39;28.80;69.40
20594;DHT22;10455;48.732;10.266;2023-04-22T09:38:51;26.40;75.90
20594;DHT22;10455;48.732;10.266;2023-04-22T09:43:55;26.60;77.30
20594;DHT22;10455;48.732;10.266;2023-04-22T09:49:00;27.50;71.40
20594;DHT22;10455;48.732;10.266;2023-04-22T09:54:03;25.30;74.10
20594;DHT22;10455;48.732;10.266;2023-04-22T09:59:08;23.70;78.30
20594;DHT22;10455;48.732;10.266;2023-04-22T10:04:12;22.70;80.50
20594;DHT22;10455;48.732;10.266;2023-04-22T10:09:17;22.80;83.60
20594;DHT22;10455;48.732;10.266;2023-04-22T10:14:20;22.50;83.00
20594;DHT22;10455;48.732;10.266;2023-04-22T10:19:24;22.70;85.00
20594;DHT22;10455;48.732;10.266;2023-04-22T10:24:28;22.50;86.60
20594;DHT22;10455;48.732;10.266;2023-04-22T10:29:36;22.80;89.50
20594;DHT22;10455;48.732;10.266;2023-04-22T10:34:39;23.90;87.10
20594;DHT22;10455;48.732;10.266;2023-04-22T10:39:41;25.30;85.90
20594;DHT22;10455;48.732;10.266;2023-04-22T10:44:48;25.60;84.50
20594;DHT22;10455;48.732;10.266;2023-04-22T10:50:15;25.30;85.50
20594;DHT22;10455;48.732;10.266;2023-04-22T10:55:18;25.90;80.90
20594;DHT22;10455;48.732;10.266;2023-04-22T11:00:37;26.50;76.10
20594;DHT22;10455;48.732;10.266;2023-04-22T11:05:42;27.00;77.60
20594;DHT22;10455;48.732;10.266;2023-04-22T11:10:45;26.10;79.60
20594;DHT22;10455;48.732;10.266;2023-04-22T11:15:49;25.30;79.00
20594;DHT22;10455;48.732;10.266;2023-04-22T11:20:53;25.60;79.30
20594;DHT22;10455;48.732;10.266;2023-04-22T11:25:56;26.60;74.30
20594;DHT22;10455;48.732;10.266;2023-04-22T11:31:03;27.00;72.40
20594;DHT22;10455;48.732;10.266;2023-04-22T11:36:09;28.10;68.90
20594;DHT22;10455;48.732;10.266;2023-04-22T11:41:11;27.30;65.50
20594;DHT22;10455;48.732;10.266;2023-04-22T11:46:13;26.30;71.40
20594;DHT22;10455;48.732;10.266;2023-04-22T11:51:16;27.60;72.90
20594;DHT22;10455;48.732;10.266;2023-04-22T11:56:19;27.30;73.50
20594;DHT22;10455;48.732;10.266;2023-04-22T12:01:21;28.30;76.30
20594;DHT22;10455;48.732;10.266;2023-04-22T12:06:29;26.60;74.60
20594;DHT22;10455;48.732;10.266;2023-04-22T12:11:31;25.90;76.70
20594;DHT22;10455;48.732;10.266;2023-04-22T12:16:39;27.90;73.70
20594;DHT22;10455;48.732;10.266;2023-04-22T12:21:43;28.40;72.30
20594;DHT22;10455;48.732;10.266;2023-04-22T12:26:45;29.00;72.20
20594;DHT22;10455;48.732;10.266;2023-04-22T12:31:47;28.40;67.20
20594;DHT22;10455;48.732;10.266;2023-04-22T12:36:50;27.70;66.50
20594;DHT22;10455;48.732;10.266;2023-04-22T12:41:52;28.40;67.70
20594;DHT22;10455;48.732;10.266;2023-04-22T12:46:54;29.00;64.60
20594;DHT22;10455;48.732;10.266;2023-04-22T12:51:58;29.60;59.70
20594;DHT22;10455;48.732;10.266;2023-04-22T12:57:00;28.80;63.40
20594;DHT22;10455;48.732;10.266;2023-04-22T13:02:02;29.50;62.50
20594;DHT22;10455;48.732;10.266;2023-04-22T13:07:06;30.30;60.80
20594;DHT22;10455;48.732;10.266;2023-04-22T13:12:07;30.00;62.80
20594;DHT22;10455;48.732;10.266;2023-04-22T13:17:09;30.10;57.60
20594;DHT22;10455;48.732;10.266;2023-04-22T13:22:13;28.30;60.50
20594;DHT22;10455;48.732;10.266;2023-04-22T13:27:15;27.90;62.90
20594;DHT22;10455;48.732;10.266;2023-04-22T13:32:17;28.10;64.00
20594;DHT22;10455;48.732;10.266;2023-04-22T13:37:20;27.70;68.60
20594;DHT22;10455;48.732;10.266;2023-04-22T13:42:22;27.70;66.60
20594;DHT22;10455;48.732;10.266;2023-04-22T13:47:24;27.10;68.20
20594;DHT22;10455;48.732;10.266;2023-04-22T13:52:28;27.50;68.40
20594;DHT22;10455;48.732;10.266;2023-04-22T13:57:30;28.00;66.60
20594;DHT22;10455;48.732;10.266;2023-04-22T14:02:31;27.90;68.70
20594;DHT22;10455;48.732;10.266;2023-04-22T14:07:35;27.90;63.80
20594;DHT22;10455;48.732;10.266;2023-04-22T14:12:37;27.20;59.50
20594;DHT22;10455;48.732;10.266;2023-04-22T14:17:39;25.30;61.70
20594;DHT22;10455;48.732;10.266;2023-04-22T14:22:42;24.20;67.70
20594;DHT22;10455;48.732;10.266;2023-04-22T14:27:44;24.90;66.10
20594;DHT22;10455;48.732;10.266;2023-04-22T14:32:46;25.20;66.20
20594;DHT22;10455;48.732;10.266;2023-04-22T14:37:50;24.80;71.20
20594;DHT22;10455;48.732;10.266;2023-04-22T14:42:51;24.20;70.40
20594;DHT22;10455;48.732;10.266;2023-04-22T14:47:53;23.30;73.50
20594;DHT22;10455;48.732;10.266;2023-04-22T14:52:57;23.10;74.00
20594;DHT22;10455;48.732;10.266;2023-04-22T14:57:59;23.60;74.20
20594;DHT22;10455;48.732;10.266;2023-04-22T15:03:01;23.90;75.00
20594;DHT22;10455;48.732;10.266;2023-04-22T15:08:04;23.40;75.80
20594;DHT22;10455;48.732;10.266;2023-04-22T15:13:06;22.90;75.50
20594;DHT22;10455;48.732;10.266;2023-04-22T15:18:08;22.00;78.10
20594;DHT22;10455;48.732;10.266;2023-04-22T15:23:11;21.50;80.70
20594;DHT22;10455;48.732;10.266;2023-04-22T15:28:13;21.50;82.80
20594;DHT22;10455;48.732;10.266;2023-04-22T15:33:15;21.60;81.50
20594;DHT22;10455;48.732;10.266;2023-04-22T15:38:18;21.80;81.30
20594;DHT22;10455;48.732;10.266;2023-04-22T15:43:20;21.70;82.50
20594;DHT22;10455;48.732;10.266;2023-04-22T15:48:22;21.80;83.90
20594;DHT22;10455;48.732;10.266;2023-04-22T15:53:26;21.50;83.00
20594;DHT22;10455;48.732;10.266;2023-04-22T15:58:28;21.10;85.50
20594;DHT22;10455;48.732;10.266;2023-04-22T16:03:30;20.80;85.00
20594;DHT22;10455;48.732;10.266;2023-04-22T16:08:33;20.80;84.60
20594;DHT22;10455;48.732;10.266;2023-04-22T16:13:35;20.70;89.20
20594;DHT22;10455;48.732;10.266;2023-04-22T16:18:38;20.80;91.40
20594;DHT22;10455;48.732;10.266;2023-04-22T16:23:42;20.80;92.10
20594;DHT22;10455;48.732;10.266;2023-04-22T16:28:44;20.40;93.30
20594;DHT22;10455;48.732;10.266;2023-04-22T16:33:46;19.90;95.10
20594;DHT22;10455;48.732;10.266;2023-04-22T16:38:50;19.70;94.30
20594;DHT22;10455;48.732;10.266;2023-04-22T16:43:52;19.70;96.70
20594;DHT22;10455;48.732;10.266;2023-04-22T16:48:54;19.50;97.50
20594;DHT22;10455;48.732;10.266;2023-04-22T16:53:57;19.40;96.20
20594;DHT22;10455;48.732;10.266;2023-04-22T16:58:59;19.40;97.50
20594;DHT22;10455;48.732;10.266;2023-04-22T17:04:01;19.40;98.40
20594;DHT22;10455;48.732;10.266;2023-04-22T17:14:07;19.30;99.80
20594;DHT22;10455;48.732;10.266;2023-04-22T17:19:09;19.00;99.90
20594;DHT22;10455;48.732;10.266;2023-04-22T17:24:11;19.10;99.90
20594;DHT22;10455;48.732;10.266;2023-04-22T17:29:14;19.10;99.90
20594;DHT22;10455;48.732;10.266;2023-04-22T17:34:20;18.90;99.90
20594;DHT22;10455;48.732;10.266;2023-04-22T17:39:22;18.70;99.90
20594;DHT22;10455;48.732;10.266;2023-04-22T17:44:26;18.40;99.90
20594;DHT22;10455;48.732;10.266;2023-04-22T17:49:27;18.20;99.90
20594;DHT22;10455;48.732;10.266;2023-04-22T17:54:30;17.90;99.90
20594;DHT22;10455;48.732;10.266;2023-04-22T17:59:33;17.60;99.90
20594;DHT22;10455;48.732;10.266;2023-04-22T18:04:35;17.50;99.90
20594;DHT22;10455;48.732;10.266;2023-04-22T18:09:37;17.60;99.50
20594;DHT22;10455;48.732;10.266;2023-04-22T18:14:40;17.70;99.10
20594;DHT22;10455;48.732;10.266;2023-04-22T18:19:42;17.60;99.10
20594;DHT22;10455;48.732;10.266;2023-04-22T18:24:44;17.70;99.90
20594;DHT22;10455;48.732;10.266;2023-04-22T18:29:48;17.30;99.90
20594;DHT22;10455;48.732;10.266;2023-04-22T18:34:52;17.10;99.90
20594;DHT22;10455;48.732;10.266;2023-04-22T18:39:54;17.00;99.90
20594;DHT22;10455;48.732;10.266;2023-04-22T18:44:58;17.00;99.90
20594;DHT22;10455;48.732;10.266;2023-04-22T18:50:00;16.60;99.90
20594;DHT22;10455;48.732;10.266;2023-04-22T18:55:02;16.40;99.90
20594;DHT22;10455;48.732;10.266;2023-04-22T19:00:06;16.40;99.90
20594;DHT22;10455;48.732;10.266;2023-04-22T19:05:09;15.90;99.90
20594;DHT22;10455;48.732;10.266;2023-04-22T19:10:13;15.60;99.90
20594;DHT22;10455;48.732;10.266;2023-04-22T19:15:16;15.30;99.90
20594;DHT22;10455;48.732;10.266;2023-04-22T19:20:19;15.10;99.90
20594;DHT22;10455;48.732;10.266;2023-04-22T19:25:24;14.80;99.90
20594;DHT22;10455;48.732;10.266;2023-04-22T19:30:27;14.70;99.90
20594;DHT22;10455;48.732;10.266;2023-04-22T19:35:29;14.60;99.90
20594;DHT22;10455;48.732;10.266;2023-04-22T19:40:32;14.50;99.90
20594;DHT22;10455;48.732;10.266;2023-04-22T19:45:36;14.30;99.90
20594;DHT22;10455;48.732;10.266;2023-04-22T19:50:40;14.10;99.90
20594;DHT22;10455;48.732;10.266;2023-04-22T19:55:43;14.30;99.90
20594;DHT22;10455;48.732;10.266;2023-04-22T20:00:48;14.60;99.90
20594;DHT22;10455;48.732;10.266;2023-04-22T20:05:50;15.00;99.90
20594;DHT22;10455;48.732;10.266;2023-04-22T20:10:52;15.10;99.90
20594;DHT22;10455;48.732;10.266;2023-04-22T20:15:58;15.20;99.90
20594;DHT22;10455;48.732;10.266;2023-04-22T20:21:01;15.20;99.90
20594;DHT22;10455;48.732;10.266;2023-04-22T20:26:04;15.20;99.90
20594;DHT22;10455;48.732;10.266;2023-04-22T20:31:08;15.00;99.90
20594;DHT22;10455;48.732;10.266;2023-04-22T20:36:12;14.90;99.90
20594;DHT22;10455;48.732;10.266;2023-04-22T20:41:15;14.70;99.90
20594;DHT22;10455;48.732;10.266;2023-04-22T20:46:21;14.70;99.90
20594;DHT22;10455;48.732;10.266;2023-04-22T20:51:23;14.60;99.90
20594;DHT22;10455;48.732;10.266;2023-04-22T20:56:25;14.40;99.90
20594;DHT22;10455;48.732;10.266;2023-04-22T21:01:29;14.40;99.90
20594;DHT22;10455;48.732;10.266;2023-04-22T21:06:32;14.40;99.90
20594;DHT22;10455;48.732;10.266;2023-04-22T21:11:35;14.30;99.90
20594;DHT22;10455;48.732;10.266;2023-04-22T21:16:39;14.20;99.90
20594;DHT22;10455;48.732;10.266;2023-04-22T21:21:43;14.40;99.90
20594;DHT22;10455;48.732;10.266;2023-04-22T21:26:47;14.30;99.90
20594;DHT22;10455;48.732;10.266;2023-04-22T21:31:51;14.30;99.90
20594;DHT22;10455;48.732;10.266;2023-04-22T21:36:53;14.20;99.90
20594;DHT22;10455;48.732;10.266;2023-04-22T21:41:55;14.20;99.90
20594;DHT22;10455;48.732;10.266;2023-04-22T21:47:00;14.10;99.90
20594;DHT22;10455;48.732;10.266;2023-04-22T21:52:02;14.10;99.90
20594;DHT22;10455;48.732;10.266;2023-04-22T21:57:04;14.00;99.90
20594;DHT22;10455;48.732;10.266;2023-04-22T22:02:07;13.90;99.90
20594;DHT22;10455;48.732;10.266;2023-04-22T22:07:09;14.00;99.90
20594;DHT22;10455;48.732;10.266;2023-04-22T22:12:14;13.90;99.90
20594;DHT22;10455;48.732;10.266;2023-04-22T22:17:17;13.70;99.90
20594;DHT22;10455;48.732;10.266;2023-04-22T22:22:20;13.40;99.90
20594;DHT22;10455;48.732;10.266;2023-04-22T22:27:22;13.40;99.90
20594;DHT22;10455;48.732;10.266;2023-04-22T22:32:25;13.40;99.90
20594;DHT22;10455;48.732;10.266;2023-04-22T22:37:27;13.40;99.90
20594;DHT22;10455;48.732;10.266;2023-04-22T22:42:29;13.40;99.90
20594;DHT22;10455;48.732;10.266;2023-04-22T22:47:32;13.20;99.90
20594;DHT22;10455;48.732;10.266;2023-04-22T22:52:34;13.00;99.90
20594;DHT22;10455;48.732;10.266;2023-04-22T22:57:36;12.80;99.90
20594;DHT22;10455;48.732;10.266;2023-04-22T23:02:40;13.00;99.90
20594;DHT22;10455;48.732;10.266;2023-04-22T23:07:42;13.10;99.90
20594;DHT22;10455;48.732;10.266;2023-04-22T23:12:44;13.30;99.90
20594;DHT22;10455;48.732;10.266;2023-04-22T23:17:48;13.20;99.90
20594;DHT22;10455;48.732;10.266;2023-04-22T23:22:51;13.30;99.90
20594;DHT22;10455;48.732;10.266;2023-04-22T23:27:53;13.30;99.90
20594;DHT22;10455;48.732;10.266;2023-04-22T23:33:00;13.10;99.90
20594;DHT22;10455;48.732;10.266;2023-04-22T23:38:03;13.00;99.90
20594;DHT22;10455;48.732;10.266;2023-04-22T23:43:05;13.00;99.90
20594;DHT22;10455;48.732;10.266;2023-04-22T23:48:08;13.00;99.90
20594;DHT22;10455;48.732;10.266;2023-04-22T23:53:10;13.00;99.90
20594;DHT22;10455;48.732;10.266;2023-04-22T23:58:12;12.80;99.90
